Time;durP1;ratioP1;P1;durP2;ratioP2;P2;SDS_P1;SDS_P2;PMS_P1;PMS_P2;Temp;Humidity;BMP_temperature;BMP_pressure;BME280_temperature;BME280_humidity;BME280_pressure;Samples;Min_cycle;Max_cycle;Signal;HPM_P1;HPM_P2
2023/07/14 00:00:32;;;;;;;16.40;8.20;;;24.00;99.90;;;;;;4975776;28;20026;-83
2023/07/14 00:02:59;;;;;;;19.63;9.23;;;24.00;99.90;;;;;;4958424;28;20037;-83
2023/07/14 00:24:42;;;;;;;10.05;7.72;;;23.80;99.90;;;;;;5621589;23;20174;-91
2023/07/14 00:27:20;;;;;;;13.10;7.78;;;23.90;99.90;;;;;;4973988;28;20030;-92
2023/07/14 00:29:52;;;;;;;11.75;8.27;;;23.80;99.90;;;;;;4958701;28;20031;-90
2023/07/14 00:32:22;;;;;;;10.13;6.82;;;23.90;99.90;;;;;;4958892;28;20054;-89
2023/07/14 00:34:49;;;;;;;11.68;7.82;;;23.90;99.90;;;;;;4958406;28;20038;-90
2023/07/14 00:37:16;;;;;;;13.23;8.07;;;23.90;99.90;;;;;;4974361;28;20369;-92
2023/07/14 00:39:43;;;;;;;15.43;8.05;;;23.90;99.90;;;;;;4978300;28;20471;-90
2023/07/14 00:42:16;;;;;;;15.70;8.23;;;23.90;99.90;;;;;;4993757;28;20026;-90
2023/07/14 00:44:44;;;;;;;12.15;7.72;;;23.80;99.90;;;;;;4993537;28;20044;-89
2023/07/14 00:47:28;;;;;;;11.50;7.90;;;23.80;99.90;;;;;;4977639;28;20022;-90
2023/07/14 00:49:56;;;;;;;12.88;7.57;;;23.80;99.90;;;;;;4977635;28;20054;-90
2023/07/14 00:52:31;;;;;;;10.75;7.40;;;23.70;99.90;;;;;;4993577;28;20057;-90
2023/07/14 00:55:32;;;;;;;10.80;7.53;;;23.80;99.90;;;;;;4993556;28;20035;-91
2023/07/14 00:58:00;;;;;;;10.65;7.78;;;23.70;99.90;;;;;;4967842;28;20074;-92
2023/07/14 01:00:30;;;;;;;13.70;8.27;;;23.70;99.90;;;;;;4994083;28;20088;-90
2023/07/14 01:02:58;;;;;;;14.80;7.72;;;23.70;99.90;;;;;;4993461;28;20034;-89
2023/07/14 01:05:26;;;;;;;10.38;7.88;;;23.80;99.90;;;;;;4977425;28;20503;-91
2023/07/14 01:07:54;;;;;;;14.30;7.75;;;23.80;99.90;;;;;;4993832;28;20034;-89
2023/07/14 01:10:26;;;;;;;9.77;7.40;;;23.80;99.90;;;;;;4977451;28;20487;-89
2023/07/14 01:13:13;;;;;;;24.17;7.93;;;23.80;99.90;;;;;;4993613;28;20483;-89
2023/07/14 01:15:41;;;;;;;12.82;7.72;;;23.80;99.90;;;;;;4957970;28;20062;-89
2023/07/14 01:18:10;;;;;;;15.57;8.38;;;23.80;99.90;;;;;;4958045;28;20019;-89
2023/07/14 01:20:38;;;;;;;19.58;8.40;;;23.80;99.90;;;;;;4976374;28;20034;-91
2023/07/14 01:23:21;;;;;;;17.35;8.38;;;23.80;99.90;;;;;;4977313;28;20034;-90
2023/07/14 01:26:34;;;;;;;13.07;7.95;;;23.80;99.90;;;;;;4993373;28;20050;-89
2023/07/14 01:29:03;;;;;;;15.20;7.70;;;23.90;99.90;;;;;;4899909;29;20036;-90
2023/07/14 01:31:30;;;;;;;12.13;7.10;;;24.00;99.90;;;;;;4963301;28;20065;-93
2023/07/14 01:33:58;;;;;;;12.25;7.00;;;24.00;99.90;;;;;;4958075;28;20027;-90
2023/07/14 01:36:25;;;;;;;14.35;8.55;;;24.10;99.90;;;;;;4959236;28;20027;-89
2023/07/14 01:38:55;;;;;;;16.80;8.15;;;24.20;99.90;;;;;;4995530;28;20030;-90
2023/07/14 01:41:22;;;;;;;12.05;6.80;;;24.30;99.90;;;;;;4981145;28;20103;-89
2023/07/14 01:44:03;;;;;;;14.85;7.60;;;24.20;99.90;;;;;;4981370;28;20038;-90
2023/07/14 01:46:30;;;;;;;13.15;7.85;;;24.20;99.90;;;;;;4997210;28;20603;-89
2023/07/14 01:49:03;;;;;;;10.57;6.55;;;24.20;99.90;;;;;;4980829;28;20071;-90
2023/07/14 01:51:38;;;;;;;12.93;6.47;;;24.10;99.90;;;;;;4981009;28;20022;-90
2023/07/14 01:54:27;;;;;;;10.27;7.00;;;24.10;99.90;;;;;;4997163;28;20034;-89
2023/07/14 01:56:57;;;;;;;11.50;8.02;;;24.00;99.90;;;;;;4996874;28;20069;-90
2023/07/14 01:59:34;;;;;;;13.18;6.80;;;24.00;99.90;;;;;;4993287;28;20061;-89
2023/07/14 02:02:06;;;;;;;14.60;6.80;;;24.10;99.90;;;;;;4998901;28;20027;-88
2023/07/14 02:04:36;;;;;;;8.88;6.75;;;24.00;99.90;;;;;;5014899;28;20096;-88
2023/07/14 02:07:03;;;;;;;13.20;6.60;;;24.00;99.90;;;;;;5000076;28;20026;-91
2023/07/14 02:09:32;;;;;;;12.40;7.45;;;23.90;99.90;;;;;;4997220;28;20030;-90
2023/07/14 02:12:05;;;;;;;12.23;7.25;;;24.00;99.90;;;;;;4996585;28;20031;-89
2023/07/14 02:14:47;;;;;;;13.48;7.60;;;24.00;99.90;;;;;;4961818;28;20034;-89
2023/07/14 02:17:33;;;;;;;13.38;6.88;;;23.90;99.90;;;;;;4960880;28;20034;-89
2023/07/14 02:20:10;;;;;;;12.23;7.68;;;23.90;99.90;;;;;;4961017;28;20510;-89
2023/07/14 02:22:38;;;;;;;10.57;6.80;;;23.80;99.90;;;;;;4976182;28;20031;-91
2023/07/14 02:25:10;;;;;;;12.68;6.88;;;23.80;99.90;;;;;;4979706;28;20050;-90
2023/07/14 02:27:36;;;;;;;16.55;8.07;;;23.80;99.90;;;;;;4996236;28;20396;-92
2023/07/14 02:30:26;;;;;;;13.68;7.72;;;23.80;99.90;;;;;;4979984;28;20026;-89
2023/07/14 02:33:00;;;;;;;10.10;7.18;;;23.70;99.90;;;;;;4979993;28;20034;-89
2023/07/14 02:35:59;;;;;;;13.68;7.85;;;23.60;99.90;;;;;;4996245;28;20034;-90
2023/07/14 02:38:26;;;;;;;13.32;7.32;;;23.50;99.90;;;;;;4996058;28;20030;-89
2023/07/14 02:41:11;;;;;;;14.77;7.65;;;23.50;99.90;;;;;;4979774;28;20030;-89
2023/07/14 02:43:39;;;;;;;13.93;7.30;;;23.40;99.90;;;;;;4960316;28;20043;-89
2023/07/14 02:46:14;;;;;;;12.25;7.25;;;23.40;99.90;;;;;;4960267;28;20484;-91
2023/07/14 02:48:45;;;;;;;14.25;7.10;;;23.50;99.90;;;;;;4960201;28;20047;-92
2023/07/14 02:51:11;;;;;;;19.00;8.00;;;23.50;99.90;;;;;;4960855;28;20031;-91
2023/07/14 02:53:38;;;;;;;16.42;8.02;;;23.50;99.90;;;;;;4960269;28;20027;-90
2023/07/14 02:56:05;;;;;;;12.07;7.00;;;23.50;99.90;;;;;;4960347;28;20034;-90
2023/07/14 02:58:34;;;;;;;12.00;6.80;;;23.50;99.90;;;;;;4975994;28;20479;-90
2023/07/14 03:01:05;;;;;;;17.05;7.90;;;23.40;99.90;;;;;;4995616;28;20121;-90
2023/07/14 03:03:33;;;;;;;13.68;8.40;;;23.30;99.90;;;;;;4995387;28;20089;-90
2023/07/14 03:06:00;;;;;;;12.82;6.63;;;23.30;99.90;;;;;;4979176;28;20034;-90
2023/07/14 03:08:28;;;;;;;12.52;7.50;;;23.30;99.90;;;;;;4995276;28;20030;-92
2023/07/14 03:11:00;;;;;;;13.20;8.07;;;23.30;99.90;;;;;;4995307;28;20038;-90
2023/07/14 03:13:27;;;;;;;16.55;8.65;;;23.40;99.90;;;;;;4995862;28;20038;-90
2023/07/14 03:15:53;;;;;;;19.80;8.48;;;23.50;99.90;;;;;;4979116;28;20030;-89
2023/07/14 03:18:25;;;;;;;16.27;9.45;;;23.50;99.90;;;;;;4979351;28;20125;-89
2023/07/14 03:20:56;;;;;;;13.63;7.80;;;23.60;99.90;;;;;;4978985;28;20150;-89
2023/07/14 03:23:23;;;;;;;11.50;7.60;;;23.60;99.90;;;;;;4995186;28;20112;-91
2023/07/14 03:25:55;;;;;;;13.07;8.98;;;23.60;99.90;;;;;;4978787;28;20534;-90
2023/07/14 03:28:23;;;;;;;21.92;8.30;;;23.70;99.90;;;;;;4995141;28;20380;-90
2023/07/14 03:30:49;;;;;;;19.63;8.77;;;23.70;99.90;;;;;;4978812;28;20034;-90
2023/07/14 03:33:16;;;;;;;25.95;9.52;;;23.60;99.90;;;;;;4978826;28;20113;-90
2023/07/14 03:35:47;;;;;;;17.98;9.05;;;23.70;99.90;;;;;;4995080;28;20027;-91
2023/07/14 03:38:13;;;;;;;27.27;9.70;;;23.70;99.90;;;;;;4978729;28;20032;-89
2023/07/14 03:40:44;;;;;;;23.83;10.40;;;23.70;99.90;;;;;;4978433;28;20116;-91
2023/07/14 03:43:11;;;;;;;26.45;9.90;;;23.80;99.90;;;;;;4994673;28;20056;-90
2023/07/14 03:45:37;;;;;;;22.55;11.05;;;23.90;99.90;;;;;;4978540;28;20026;-89
2023/07/14 03:48:04;;;;;;;21.85;11.13;;;23.90;99.90;;;;;;4994496;28;20502;-90
2023/07/14 03:50:33;;;;;;;36.92;12.25;;;23.90;99.90;;;;;;4978655;28;20026;-92
2023/07/14 03:53:00;;;;;;;27.33;10.05;;;24.00;99.90;;;;;;4979744;28;20042;-90
2023/07/14 03:55:28;;;;;;;26.70;11.23;;;24.00;99.90;;;;;;4985759;28;20033;-89
2023/07/14 03:57:55;;;;;;;26.65;11.45;;;24.00;99.90;;;;;;4994505;28;20027;-89
2023/07/14 04:00:23;;;;;;;27.05;10.80;;;24.10;99.90;;;;;;4993950;28;20094;-89
2023/07/14 04:02:50;;;;;;;23.65;10.43;;;24.00;99.90;;;;;;4978238;28;20030;-89
2023/07/14 04:05:16;;;;;;;27.45;12.07;;;24.00;99.90;;;;;;4978192;28;20030;-90
2023/07/14 04:07:44;;;;;;;21.00;10.05;;;24.10;99.90;;;;;;4975030;28;20504;-90
2023/07/14 04:10:11;;;;;;;26.52;11.10;;;24.10;99.90;;;;;;4994499;28;20026;-88
2023/07/14 04:12:38;;;;;;;24.05;10.18;;;24.20;99.90;;;;;;4978732;28;20026;-91
2023/07/14 04:15:05;;;;;;;23.65;9.77;;;24.40;99.90;;;;;;4978455;28;20022;-92
2023/07/14 04:17:32;;;;;;;20.15;9.43;;;24.50;99.90;;;;;;4994118;28;20065;-90
2023/07/14 04:19:58;;;;;;;25.15;11.25;;;24.50;99.90;;;;;;4977944;28;20034;-91
2023/07/14 04:22:25;;;;;;;31.63;10.73;;;24.60;99.90;;;;;;4977907;28;20027;-91
2023/07/14 04:24:52;;;;;;;28.63;10.90;;;24.70;99.90;;;;;;4977664;28;20415;-90
2023/07/14 04:27:27;;;;;;;23.35;10.27;;;24.90;99.90;;;;;;4993901;28;20034;-90
2023/07/14 04:29:53;;;;;;;28.42;10.63;;;25.00;99.90;;;;;;4977745;28;20033;-91
2023/07/14 04:32:20;;;;;;;24.40;10.57;;;25.20;99.90;;;;;;4977624;28;20027;-92
2023/07/14 04:34:46;;;;;;;23.20;10.90;;;25.30;99.90;;;;;;4974533;28;20031;-90
2023/07/14 04:37:13;;;;;;;21.55;11.20;;;25.40;99.90;;;;;;4990432;28;20090;-91
2023/07/14 04:39:39;;;;;;;18.70;9.63;;;25.50;99.90;;;;;;4974254;28;20034;-90
2023/07/14 04:42:06;;;;;;;19.33;8.93;;;25.60;99.90;;;;;;4958229;28;20029;-92
2023/07/14 04:44:33;;;;;;;21.45;10.43;;;25.90;99.90;;;;;;4960733;28;20098;-91
2023/07/14 04:46:59;;;;;;;25.02;9.48;;;26.10;99.90;;;;;;4974162;28;20487;-90
2023/07/14 04:49:29;;;;;;;48.78;11.52;;;26.40;99.90;;;;;;4974240;28;20117;-90
2023/07/14 04:51:56;;;;;;;23.90;11.88;;;27.20;99.90;;;;;;4974365;28;20035;-91
2023/07/14 04:54:23;;;;;;;17.38;10.57;;;28.00;99.90;;;;;;4974286;28;20487;-90
2023/07/14 04:56:51;;;;;;;16.35;13.65;;;28.20;99.90;;;;;;4974058;28;20101;-91
2023/07/14 04:59:18;;;;;;;16.73;14.57;;;28.30;99.90;;;;;;4974062;28;20030;-90
2023/07/14 05:01:44;;;;;;;20.63;14.77;;;28.60;99.90;;;;;;4974167;28;20113;-91
2023/07/14 05:04:11;;;;;;;17.27;15.70;;;28.90;99.90;;;;;;4974130;28;20042;-91
2023/07/14 05:06:37;;;;;;;18.40;16.70;;;29.00;99.90;;;;;;4974192;28;20030;-90
2023/07/14 05:09:04;;;;;;;18.02;16.50;;;29.00;99.90;;;;;;4974159;28;20027;-91
2023/07/14 05:11:30;;;;;;;18.67;16.02;;;29.20;99.90;;;;;;4976409;28;20120;-90
2023/07/14 05:13:57;;;;;;;17.65;15.93;;;29.20;99.90;;;;;;4981089;28;20117;-92
2023/07/14 05:16:23;;;;;;;18.58;15.65;;;30.00;99.90;;;;;;4981240;28;20026;-91
2023/07/14 05:18:50;;;;;;;17.13;15.73;;;30.20;99.90;;;;;;4981590;28;20030;-91
2023/07/14 05:21:18;;;;;;;18.83;17.02;;;30.70;99.90;;;;;;4981051;28;20026;-91
2023/07/14 05:23:47;;;;;;;19.65;17.75;;;31.20;99.90;;;;;;4980720;28;20039;-91
2023/07/14 05:26:13;;;;;;;19.85;18.05;;;31.50;99.90;;;;;;4997916;28;20030;-92
2023/07/14 05:28:40;;;;;;;20.23;18.15;;;31.40;99.90;;;;;;4977831;28;20034;-91
2023/07/14 05:31:09;;;;;;;20.40;18.80;;;31.70;99.90;;;;;;4997049;28;20044;-92
2023/07/14 05:33:35;;;;;;;21.83;19.83;;;31.90;99.90;;;;;;4997184;28;20030;-91
2023/07/14 05:36:02;;;;;;;21.63;19.63;;;32.50;99.90;;;;;;4980894;28;20044;-90
2023/07/14 05:38:29;;;;;;;21.52;19.65;;;32.70;99.90;;;;;;4996992;28;20476;-90
2023/07/14 05:40:57;;;;;;;22.15;20.30;;;33.10;99.90;;;;;;4980767;28;20034;-91
2023/07/14 05:43:25;;;;;;;23.83;21.65;;;33.40;99.90;;;;;;4996777;28;20042;-91
2023/07/14 05:45:52;;;;;;;22.30;20.40;;;33.60;99.90;;;;;;4961608;28;20057;-91
2023/07/14 05:48:19;;;;;;;22.33;20.73;;;33.70;99.90;;;;;;4961425;28;20034;-91
2023/07/14 05:50:46;;;;;;;23.42;21.20;;;33.90;99.90;;;;;;4978438;28;20034;-92
2023/07/14 05:53:22;;;;;;;23.23;21.25;;;34.00;99.90;;;;;;4980880;28;20026;-94
2023/07/14 05:55:48;;;;;;;21.55;19.88;;;34.00;99.90;;;;;;4962171;28;20026;-92
2023/07/14 05:58:15;;;;;;;23.20;21.30;;;34.00;99.90;;;;;;4961625;28;20039;-92
2023/07/14 06:01:16;;;;;;;23.73;21.45;;;34.60;99.90;;;;;;4961315;28;20023;-93
2023/07/14 06:04:02;;;;;;;23.08;21.05;;;34.70;99.90;;;;;;4962079;28;20504;-92
2023/07/14 06:06:51;;;;;;;23.67;21.42;;;34.70;99.90;;;;;;4981036;28;20030;-95
2023/07/14 06:26:39;;;;;;;23.85;21.95;;;35.50;99.90;;;;;;1792965;23;20343;-96
2023/07/14 06:29:05;;;;;;;23.63;21.70;;;35.20;99.90;;;;;;4920965;29;20118;-92
2023/07/14 06:31:32;;;;;;;23.25;21.42;;;35.00;99.90;;;;;;4923051;29;20055;-94
2023/07/14 06:33:58;;;;;;;24.60;22.75;;;35.20;99.90;;;;;;4922461;29;20032;-95
2023/07/14 06:36:25;;;;;;;24.15;22.45;;;35.60;99.90;;;;;;4924982;29;20122;-93
2023/07/14 06:38:52;;;;;;;24.40;22.25;;;35.10;99.90;;;;;;4922461;29;20023;-94
2023/07/14 06:41:18;;;;;;;24.45;22.63;;;35.90;99.90;;;;;;4924200;29;20056;-94
2023/07/14 06:43:45;;;;;;;23.17;21.67;;;36.60;99.90;;;;;;4922632;29;20031;-95
2023/07/14 06:46:11;;;;;;;25.17;23.20;;;35.90;99.90;;;;;;4928084;29;20032;-93
2023/07/14 06:48:38;;;;;;;24.15;22.35;;;36.20;99.90;;;;;;4924116;29;20086;-95
2023/07/14 06:51:04;;;;;;;23.75;21.98;;;35.70;99.90;;;;;;4924056;29;20024;-94
2023/07/14 06:53:31;;;;;;;25.10;23.05;;;35.90;99.90;;;;;;4923692;29;20032;-94
2023/07/14 06:55:58;;;;;;;25.30;23.10;;;36.10;99.90;;;;;;4923951;29;20031;-93
2023/07/14 06:58:25;;;;;;;25.83;23.67;;;37.10;99.90;;;;;;4922883;29;20040;-94
2023/07/14 07:00:52;;;;;;;25.13;23.05;;;37.70;99.90;;;;;;4923769;29;20031;-92
2023/07/14 07:03:20;;;;;;;25.98;23.67;;;37.60;99.90;;;;;;4922208;29;20042;-92
2023/07/14 07:05:47;;;;;;;25.25;23.27;;;37.60;99.90;;;;;;4918513;29;20565;-92
2023/07/14 07:08:14;;;;;;;25.95;23.58;;;37.10;99.90;;;;;;4902963;29;20032;-92
2023/07/14 07:10:43;;;;;;;27.52;25.40;;;37.20;99.90;;;;;;4903057;29;20395;-93
2023/07/14 07:13:11;;;;;;;26.33;24.00;;;37.60;99.90;;;;;;4903036;29;20454;-93
2023/07/14 07:15:40;;;;;;;26.05;24.15;;;37.90;99.90;;;;;;4902691;29;20083;-93
2023/07/14 07:18:07;;;;;;;26.63;24.52;;;37.40;99.90;;;;;;4921545;29;20024;-93
2023/07/14 07:20:37;;;;;;;26.10;24.13;;;38.00;99.90;;;;;;4921748;29;20036;-95
2023/07/14 07:23:03;;;;;;;26.50;24.50;;;37.90;99.90;;;;;;4927479;29;20123;-91
2023/07/14 07:25:30;;;;;;;26.52;24.38;;;39.00;99.90;;;;;;4921519;29;20039;-91
2023/07/14 07:27:56;;;;;;;26.80;24.27;;;38.90;99.90;;;;;;4930968;29;20531;-91
2023/07/14 07:30:22;;;;;;;26.33;24.33;;;39.20;99.90;;;;;;4937177;29;20031;-91
2023/07/14 07:32:49;;;;;;;26.17;24.13;;;38.40;99.90;;;;;;4937240;28;20031;-93
2023/07/14 07:35:16;;;;;;;27.63;25.02;;;37.60;99.90;;;;;;4937281;29;20035;-91
2023/07/14 07:37:42;;;;;;;27.65;25.17;;;37.60;99.90;;;;;;4933407;28;20024;-92
2023/07/14 07:40:11;;;;;;;27.42;25.30;;;37.70;99.90;;;;;;4941062;29;20043;-92
2023/07/14 07:42:38;;;;;;;27.05;24.80;;;37.90;99.90;;;;;;4941412;29;20035;-93
2023/07/14 07:45:05;;;;;;;27.75;25.33;;;38.30;99.90;;;;;;4936969;29;20489;-93
2023/07/14 07:47:32;;;;;;;26.67;24.48;;;38.20;99.90;;;;;;4936731;29;20024;-92
2023/07/14 07:49:58;;;;;;;27.02;25.13;;;37.90;99.90;;;;;;4936886;29;20027;-91
2023/07/14 07:52:25;;;;;;;27.42;25.40;;;37.10;99.90;;;;;;4936836;29;20123;-92
2023/07/14 07:54:51;;;;;;;26.90;24.95;;;37.10;99.90;;;;;;4936861;29;20035;-93
2023/07/14 07:57:18;;;;;;;27.52;25.23;;;38.40;99.90;;;;;;4936888;29;20052;-92
2023/07/14 07:59:44;;;;;;;27.70;25.70;;;38.90;99.90;;;;;;4936967;29;20020;-92
2023/07/14 08:02:13;;;;;;;28.38;25.80;;;39.10;99.90;;;;;;4936834;29;20051;-91
2023/07/14 08:04:39;;;;;;;29.17;26.58;;;39.30;99.90;;;;;;4936491;29;20044;-91
2023/07/14 08:07:13;;;;;;;27.75;25.75;;;40.20;99.90;;;;;;4936317;29;20091;-91
2023/07/14 08:09:39;;;;;;;27.35;25.55;;;40.30;99.90;;;;;;4936562;29;20031;-90
2023/07/14 08:12:06;;;;;;;28.92;26.30;;;40.40;99.90;;;;;;4936760;29;20548;-91
2023/07/14 08:14:55;;;;;;;27.83;25.63;;;40.10;99.90;;;;;;4936322;29;20055;-90
2023/07/14 08:17:25;;;;;;;28.00;25.85;;;40.30;99.90;;;;;;4936246;29;20032;-89
2023/07/14 08:19:52;;;;;;;29.05;26.08;;;40.10;99.90;;;;;;4936361;29;20032;-89
2023/07/14 08:22:19;;;;;;;28.27;25.88;;;39.90;99.90;;;;;;4936339;29;20123;-90
2023/07/14 08:24:46;;;;;;;27.77;25.73;;;39.60;99.90;;;;;;4936191;29;20083;-91
2023/07/14 08:27:14;;;;;;;28.10;25.75;;;40.00;99.90;;;;;;4935962;29;20044;-90
2023/07/14 08:29:41;;;;;;;28.50;26.40;;;39.90;99.90;;;;;;4936124;29;20032;-91
2023/07/14 08:32:08;;;;;;;28.27;25.75;;;39.60;99.90;;;;;;4936126;29;20121;-89
2023/07/14 08:34:35;;;;;;;27.50;25.38;;;39.60;99.90;;;;;;4936220;29;20118;-91
2023/07/14 08:37:04;;;;;;;28.58;26.10;;;39.90;99.90;;;;;;4936154;29;20024;-90
2023/07/14 08:39:32;;;;;;;26.67;24.85;;;39.90;99.90;;;;;;4935983;29;20576;-89
2023/07/14 08:42:32;;;;;;;27.60;25.08;;;39.90;99.90;;;;;;4936063;29;20038;-92
2023/07/14 08:45:29;;;;;;;27.33;25.17;;;39.90;99.90;;;;;;4921274;29;20120;-91
2023/07/14 08:48:13;;;;;;;28.02;25.33;;;39.90;99.90;;;;;;4951385;28;20042;-91
2023/07/14 08:50:40;;;;;;;26.83;25.02;;;40.40;99.90;;;;;;4951866;28;20038;-90
2023/07/14 08:53:15;;;;;;;28.25;25.52;;;40.60;99.90;;;;;;4951953;29;20020;-92
2023/07/14 08:55:41;;;;;;;27.90;25.30;;;39.90;99.90;;;;;;4935991;29;20122;-91
2023/07/14 08:58:18;;;;;;;27.52;25.52;;;39.50;99.90;;;;;;4935865;29;20038;-90
2023/07/14 09:01:05;;;;;;;27.17;25.13;;;39.40;99.90;;;;;;4935766;29;20473;-92
2023/07/14 09:03:41;;;;;;;28.35;26.02;;;39.60;99.90;;;;;;4932313;29;20050;-92
2023/07/14 09:06:33;;;;;;;27.92;25.77;;;39.60;99.90;;;;;;4941222;28;20032;-93
2023/07/14 09:08:59;;;;;;;28.65;26.17;;;39.30;99.90;;;;;;4931205;29;20095;-92
2023/07/14 09:11:38;;;;;;;28.05;25.95;;;39.80;99.90;;;;;;4951682;28;20048;-91
2023/07/14 09:14:20;;;;;;;27.33;25.42;;;40.30;99.90;;;;;;4951172;28;20521;-91
2023/07/14 09:17:12;;;;;;;28.10;25.92;;;40.60;99.80;;;;;;4943811;29;20588;-90
2023/07/14 09:19:59;;;;;;;28.05;26.15;;;40.30;99.90;;;;;;4935718;29;20028;-92
2023/07/14 09:22:40;;;;;;;28.48;26.08;;;40.40;99.80;;;;;;4935827;29;20027;-92
2023/07/14 09:25:25;;;;;;;28.42;25.92;;;40.80;98.90;;;;;;4935544;29;20079;-90
2023/07/14 09:27:52;;;;;;;28.80;26.40;;;41.10;98.60;;;;;;4907745;29;20044;-93
2023/07/14 09:30:23;;;;;;;28.83;26.63;;;41.10;97.30;;;;;;4905024;29;20036;-91
2023/07/14 09:32:54;;;;;;;28.27;26.13;;;40.90;97.60;;;;;;4918111;29;20028;-90
2023/07/14 09:35:24;;;;;;;28.77;26.13;;;40.60;97.70;;;;;;4906006;29;20028;-92
2023/07/14 09:37:53;;;;;;;28.58;26.67;;;40.50;96.80;;;;;;4900886;29;20099;-91
2023/07/14 09:40:29;;;;;;;28.92;26.55;;;40.50;96.90;;;;;;4900592;29;20031;-91
2023/07/14 09:42:58;;;;;;;27.90;25.90;;;40.50;95.90;;;;;;4900629;29;20040;-91
2023/07/14 09:45:32;;;;;;;28.98;25.90;;;40.50;95.70;;;;;;4900730;29;20047;-90
2023/07/14 09:48:19;;;;;;;28.20;26.10;;;40.20;95.70;;;;;;4900660;29;20032;-91
2023/07/14 09:50:51;;;;;;;28.70;26.35;;;40.20;94.90;;;;;;4900394;29;20032;-90
2023/07/14 09:53:18;;;;;;;28.52;26.40;;;40.10;95.00;;;;;;4900663;29;20029;-90
2023/07/14 09:55:52;;;;;;;28.67;26.38;;;40.30;95.20;;;;;;4900544;29;20031;-91
2023/07/14 09:58:23;;;;;;;28.23;26.25;;;39.50;94.70;;;;;;4900878;29;20508;-90
2023/07/14 10:00:54;;;;;;;28.30;26.30;;;38.70;95.70;;;;;;4903745;29;20070;-91
2023/07/14 10:03:20;;;;;;;28.70;26.38;;;38.50;95.60;;;;;;4874139;29;20037;-91
2023/07/14 10:05:51;;;;;;;29.25;26.52;;;38.40;95.40;;;;;;4898223;29;20225;-89
2023/07/14 10:08:34;;;;;;;28.90;26.77;;;38.60;95.20;;;;;;4904298;29;20120;-90
2023/07/14 10:11:21;;;;;;;28.00;25.90;;;39.10;96.80;;;;;;4903756;29;20040;-90
2023/07/14 10:14:05;;;;;;;28.20;26.05;;;38.90;97.80;;;;;;4904048;29;20044;-90
2023/07/14 10:16:40;;;;;;;28.60;26.50;;;38.70;98.20;;;;;;4903971;29;20402;-89
2023/07/14 10:19:19;;;;;;;28.00;26.02;;;38.00;98.70;;;;;;4908486;29;20040;-91
2023/07/14 10:21:57;;;;;;;28.83;26.58;;;37.90;98.90;;;;;;4900510;29;20033;-91
2023/07/14 10:24:26;;;;;;;28.00;25.80;;;37.70;98.20;;;;;;4884958;29;20043;-91
2023/07/14 10:27:08;;;;;;;28.45;26.17;;;37.60;97.90;;;;;;4890588;29;20044;-91
2023/07/14 10:29:57;;;;;;;28.88;26.73;;;37.30;98.30;;;;;;4935071;29;20111;-92
2023/07/14 10:32:31;;;;;;;28.65;26.58;;;37.00;98.40;;;;;;4938348;29;20083;-90
2023/07/14 10:34:59;;;;;;;;;;;37.10;98.30;;;;;;4938582;29;20028;-90
2023/07/14 10:37:34;;;;;;;27.63;25.63;;;37.30;98.30;;;;;;4940751;29;19918;-90
2023/07/14 10:40:30;;;;;;;28.48;26.40;;;37.20;98.10;;;;;;4938426;29;20094;-90
2023/07/14 10:43:06;;;;;;;27.88;25.98;;;37.40;97.70;;;;;;4936947;29;20489;-91
2023/07/14 10:45:34;;;;;;;28.35;26.00;;;37.30;97.70;;;;;;4938073;29;20126;-90
2023/07/14 10:48:32;;;;;;;28.25;26.15;;;37.60;97.00;;;;;;4937953;29;20016;-89
2023/07/14 10:51:26;;;;;;;28.85;26.45;;;37.40;97.00;;;;;;4938023;29;20102;-90
2023/07/14 10:53:59;;;;;;;27.75;25.67;;;36.80;97.30;;;;;;4938736;29;20040;-90
2023/07/14 10:56:38;;;;;;;27.17;25.38;;;37.00;97.50;;;;;;4953859;29;20059;-90
2023/07/14 10:59:26;;;;;;;27.95;26.13;;;37.10;97.70;;;;;;4937821;29;20126;-91
2023/07/14 11:02:14;;;;;;;27.80;25.80;;;36.90;97.80;;;;;;4937658;29;20031;-90
2023/07/14 11:04:47;;;;;;;28.95;26.67;;;36.60;97.90;;;;;;4937539;29;20088;-90
2023/07/14 11:07:25;;;;;;;28.23;26.10;;;36.70;97.80;;;;;;4938369;29;20098;-91
2023/07/14 11:09:51;;;;;;;28.33;25.75;;;36.60;98.20;;;;;;4953133;28;20118;-89
2023/07/14 11:12:53;;;;;;;28.13;25.95;;;36.20;98.10;;;;;;4953307;28;20023;-90
2023/07/14 11:15:41;;;;;;;27.67;25.63;;;36.50;97.20;;;;;;4937434;29;20137;-91
2023/07/14 11:18:48;;;;;;;27.85;25.70;;;36.50;97.10;;;;;;4953438;29;20036;-90
2023/07/14 11:21:20;;;;;;;27.55;25.58;;;36.80;97.10;;;;;;4949904;29;20033;-92
2023/07/14 11:24:13;;;;;;;27.50;25.40;;;36.80;96.60;;;;;;4946003;28;20070;-90
2023/07/14 11:27:07;;;;;;;27.65;25.58;;;36.40;96.90;;;;;;4954234;28;20036;-91
2023/07/14 11:30:21;;;;;;;27.92;26.00;;;36.50;97.00;;;;;;4932284;29;20036;-91
2023/07/14 11:33:26;;;;;;;28.20;25.90;;;36.20;96.80;;;;;;4898071;29;20055;-90
2023/07/14 11:36:00;;;;;;;27.98;25.85;;;36.70;96.80;;;;;;4902482;29;20035;-89
2023/07/14 11:38:48;;;;;;;28.80;26.40;;;37.00;96.40;;;;;;4902371;29;20534;-90
2023/07/14 11:41:17;;;;;;;29.27;26.77;;;37.10;96.00;;;;;;4918304;29;20051;-90
2023/07/14 11:43:44;;;;;;;28.23;26.02;;;36.80;95.90;;;;;;4911932;29;20051;-90
2023/07/14 11:46:19;;;;;;;27.88;26.13;;;36.80;96.00;;;;;;4902301;29;20040;-90
2023/07/14 11:48:54;;;;;;;28.17;26.15;;;36.60;96.00;;;;;;4899240;29;20028;-89
2023/07/14 11:51:52;;;;;;;28.50;26.58;;;36.70;96.20;;;;;;4902018;29;20036;-91
2023/07/14 11:54:18;;;;;;;27.77;25.77;;;36.50;97.30;;;;;;4845481;29;20048;-90
2023/07/14 11:57:00;;;;;;;27.65;25.60;;;36.10;98.00;;;;;;4860883;29;20061;-89
2023/07/14 11:59:28;;;;;;;28.08;25.88;;;36.30;97.80;;;;;;4845936;29;20046;-90
2023/07/14 12:02:30;;;;;;;27.23;25.42;;;36.30;97.70;;;;;;4845445;29;20033;-90
2023/07/14 12:05:18;;;;;;;27.73;25.60;;;36.30;97.30;;;;;;4851679;29;20524;-90
2023/07/14 12:08:19;;;;;;;27.45;25.55;;;36.30;97.30;;;;;;4857505;29;20443;-90
2023/07/14 12:10:46;;;;;;;27.73;25.63;;;36.40;97.40;;;;;;4845146;29;20124;-89
2023/07/14 12:13:19;;;;;;;29.02;26.80;;;36.40;97.60;;;;;;4845091;29;20033;-89
2023/07/14 12:15:47;;;;;;;27.63;25.77;;;36.40;97.20;;;;;;4860895;29;20034;-91
2023/07/14 12:18:37;;;;;;;29.25;27.02;;;36.20;97.40;;;;;;4845398;29;20038;-90
2023/07/14 12:21:16;;;;;;;27.90;26.00;;;36.40;97.60;;;;;;4842572;29;20041;-90
2023/07/14 12:23:52;;;;;;;28.05;25.63;;;36.50;96.80;;;;;;4860102;29;20046;-90
2023/07/14 12:26:44;;;;;;;27.50;25.55;;;36.20;96.90;;;;;;4860380;29;20041;-91
2023/07/14 12:29:16;;;;;;;27.55;25.45;;;36.30;96.80;;;;;;4879015;29;20044;-89
2023/07/14 12:31:50;;;;;;;26.48;24.70;;;36.10;98.00;;;;;;4915515;29;20044;-91
2023/07/14 12:34:19;;;;;;;26.98;24.98;;;36.30;96.60;;;;;;4920908;29;20388;-90
2023/07/14 12:36:46;;;;;;;26.90;25.05;;;36.30;96.60;;;;;;4920180;29;20028;-92
2023/07/14 12:39:12;;;;;;;26.88;25.17;;;36.20;96.40;;;;;;4920290;29;20032;-90
2023/07/14 12:41:46;;;;;;;26.77;24.98;;;36.00;96.70;;;;;;4920203;29;20051;-91
2023/07/14 12:44:33;;;;;;;27.63;25.33;;;35.90;97.00;;;;;;4919891;29;20039;-90
2023/07/14 12:47:00;;;;;;;27.25;25.27;;;36.10;96.90;;;;;;4920213;29;20106;-93
2023/07/14 12:49:37;;;;;;;27.75;25.50;;;36.00;96.80;;;;;;4920057;29;20034;-91
2023/07/14 12:52:07;;;;;;;27.52;25.63;;;36.10;97.60;;;;;;4920032;29;20095;-92
2023/07/14 12:54:33;;;;;;;27.55;25.27;;;36.40;96.90;;;;;;4919978;29;20039;-90
2023/07/14 12:57:01;;;;;;;27.63;25.75;;;36.30;96.70;;;;;;4928230;29;20035;-90
2023/07/14 12:59:31;;;;;;;27.15;25.05;;;36.10;96.70;;;;;;4935917;29;20032;-93
2023/07/14 13:01:58;;;;;;;27.33;25.42;;;35.80;96.70;;;;;;4920091;29;20036;-95
2023/07/14 13:04:27;;;;;;;27.48;25.27;;;35.70;96.80;;;;;;4920375;29;20541;-90
2023/07/14 13:07:26;;;;;;;27.38;25.30;;;35.70;96.90;;;;;;4916792;29;20048;-91
2023/07/14 13:10:19;;;;;;;27.40;25.30;;;35.40;97.60;;;;;;4865161;29;20073;-90
2023/07/14 13:12:46;;;;;;;27.15;25.17;;;35.90;98.10;;;;;;4865793;29;20044;-89
2023/07/14 13:15:20;;;;;;;27.25;25.35;;;35.90;99.90;;;;;;4878058;29;20029;-91
2023/07/14 13:17:50;;;;;;;27.50;25.48;;;36.00;99.60;;;;;;4896907;29;20439;-91
2023/07/14 13:20:25;;;;;;;27.48;25.30;;;36.10;99.90;;;;;;4881804;29;20036;-90
2023/07/14 13:23:10;;;;;;;27.63;25.67;;;35.60;99.60;;;;;;4897968;29;20033;-92
2023/07/14 13:26:03;;;;;;;27.30;25.33;;;35.60;99.60;;;;;;4898562;29;20048;-90
2023/07/14 13:28:53;;;;;;;27.02;25.23;;;35.60;99.90;;;;;;4913691;29;20439;-91
2023/07/14 13:31:28;;;;;;;26.45;24.58;;;35.50;99.10;;;;;;4912695;29;20074;-89
2023/07/14 13:33:57;;;;;;;26.75;24.85;;;35.60;99.60;;;;;;4906215;29;20111;-90
2023/07/14 13:36:33;;;;;;;27.40;25.10;;;35.50;99.40;;;;;;4900690;29;20044;-89